sensor_id;sensor_type;location;lat;lon;timestamp;temperature;humidity
16521;DHT22;8373;48.110;11.522;2023-03-03T00:01:16;5.40;68.90
16521;DHT22;8373;48.110;11.522;2023-03-03T00:03:42;5.40;68.90
16521;DHT22;8373;48.110;11.522;2023-03-03T00:06:12;5.40;68.80
16521;DHT22;8373;48.110;11.522;2023-03-03T00:08:40;5.30;68.90
16521;DHT22;8373;48.110;11.522;2023-03-03T00:11:08;5.30;69.10
16521;DHT22;8373;48.110;11.522;2023-03-03T00:13:43;5.30;69.00
16521;DHT22;8373;48.110;11.522;2023-03-03T00:16:15;5.30;69.10
16521;DHT22;8373;48.110;11.522;2023-03-03T00:18:46;5.30;69.20
16521;DHT22;8373;48.110;11.522;2023-03-03T00:23:50;5.30;69.40
16521;DHT22;8373;48.110;11.522;2023-03-03T00:26:20;5.30;69.20
16521;DHT22;8373;48.110;11.522;2023-03-03T00:28:49;5.20;69.10
16521;DHT22;8373;48.110;11.522;2023-03-03T00:31:18;5.20;69.20
16521;DHT22;8373;48.110;11.522;2023-03-03T00:33:48;5.20;69.20
16521;DHT22;8373;48.110;11.522;2023-03-03T00:36:29;5.10;69.20
16521;DHT22;8373;48.110;11.522;2023-03-03T00:39:12;5.20;69.70
16521;DHT22;8373;48.110;11.522;2023-03-03T00:41:43;5.20;69.60
16521;DHT22;8373;48.110;11.522;2023-03-03T00:44:32;5.10;69.30
16521;DHT22;8373;48.110;11.522;2023-03-03T00:47:24;5.10;69.50
16521;DHT22;8373;48.110;11.522;2023-03-03T00:55:11;5.20;68.70
16521;DHT22;8373;48.110;11.522;2023-03-03T00:57:38;5.10;68.60
16521;DHT22;8373;48.110;11.522;2023-03-03T01:00:06;5.10;69.70
16521;DHT22;8373;48.110;11.522;2023-03-03T01:02:33;5.10;69.00
16521;DHT22;8373;48.110;11.522;2023-03-03T01:05:00;5.10;69.20
16521;DHT22;8373;48.110;11.522;2023-03-03T01:07:27;5.10;69.30
16521;DHT22;8373;48.110;11.522;2023-03-03T01:09:54;5.00;69.50
16521;DHT22;8373;48.110;11.522;2023-03-03T01:12:22;5.00;69.90
16521;DHT22;8373;48.110;11.522;2023-03-03T01:14:49;5.00;70.00
16521;DHT22;8373;48.110;11.522;2023-03-03T01:17:17;5.00;69.80
16521;DHT22;8373;48.110;11.522;2023-03-03T01:19:44;5.00;70.10
16521;DHT22;8373;48.110;11.522;2023-03-03T01:22:11;5.00;70.40
16521;DHT22;8373;48.110;11.522;2023-03-03T01:24:38;5.00;70.40
16521;DHT22;8373;48.110;11.522;2023-03-03T01:27:05;5.00;70.40
16521;DHT22;8373;48.110;11.522;2023-03-03T01:29:33;5.00;70.10
16521;DHT22;8373;48.110;11.522;2023-03-03T01:32:00;5.00;70.40
16521;DHT22;8373;48.110;11.522;2023-03-03T01:34:27;4.90;70.40
16521;DHT22;8373;48.110;11.522;2023-03-03T01:36:54;4.90;70.60
16521;DHT22;8373;48.110;11.522;2023-03-03T01:39:21;4.90;71.10
16521;DHT22;8373;48.110;11.522;2023-03-03T01:41:48;5.00;71.40
16521;DHT22;8373;48.110;11.522;2023-03-03T01:44:15;5.00;70.90
16521;DHT22;8373;48.110;11.522;2023-03-03T01:52:17;5.00;70.70
16521;DHT22;8373;48.110;11.522;2023-03-03T01:54:50;5.00;70.90
16521;DHT22;8373;48.110;11.522;2023-03-03T01:57:23;5.00;71.20
16521;DHT22;8373;48.110;11.522;2023-03-03T01:59:51;5.00;71.20
16521;DHT22;8373;48.110;11.522;2023-03-03T02:02:19;5.00;71.20
16521;DHT22;8373;48.110;11.522;2023-03-03T02:04:46;5.00;70.90
16521;DHT22;8373;48.110;11.522;2023-03-03T02:07:16;5.00;70.90
16521;DHT22;8373;48.110;11.522;2023-03-03T02:09:51;4.90;70.80
16521;DHT22;8373;48.110;11.522;2023-03-03T02:12:20;4.90;71.10
16521;DHT22;8373;48.110;11.522;2023-03-03T02:14:49;5.00;71.20
16521;DHT22;8373;48.110;11.522;2023-03-03T02:17:16;5.00;70.90
16521;DHT22;8373;48.110;11.522;2023-03-03T02:49:04;5.00;70.70
16521;DHT22;8373;48.110;11.522;2023-03-03T02:51:32;4.90;70.30
16521;DHT22;8373;48.110;11.522;2023-03-03T02:53:59;4.80;70.70
16521;DHT22;8373;48.110;11.522;2023-03-03T02:56:26;4.80;71.30
16521;DHT22;8373;48.110;11.522;2023-03-03T02:58:53;4.80;71.60
16521;DHT22;8373;48.110;11.522;2023-03-03T03:01:20;4.70;71.30
16521;DHT22;8373;48.110;11.522;2023-03-03T03:03:47;4.60;71.60
16521;DHT22;8373;48.110;11.522;2023-03-03T03:06:16;4.60;72.10
16521;DHT22;8373;48.110;11.522;2023-03-03T03:08:43;4.70;72.50
16521;DHT22;8373;48.110;11.522;2023-03-03T03:11:10;4.70;72.70
16521;DHT22;8373;48.110;11.522;2023-03-03T03:13:37;4.80;73.00
16521;DHT22;8373;48.110;11.522;2023-03-03T03:16:04;4.90;72.60
16521;DHT22;8373;48.110;11.522;2023-03-03T03:18:31;5.00;72.60
16521;DHT22;8373;48.110;11.522;2023-03-03T03:21:05;5.00;72.40
16521;DHT22;8373;48.110;11.522;2023-03-03T03:23:34;5.10;72.20
16521;DHT22;8373;48.110;11.522;2023-03-03T03:26:02;5.10;72.10
16521;DHT22;8373;48.110;11.522;2023-03-03T03:28:29;5.10;71.90
16521;DHT22;8373;48.110;11.522;2023-03-03T03:30:56;5.00;71.90
16521;DHT22;8373;48.110;11.522;2023-03-03T03:33:23;5.00;72.20
16521;DHT22;8373;48.110;11.522;2023-03-03T03:35:50;5.00;72.60
16521;DHT22;8373;48.110;11.522;2023-03-03T03:38:17;5.00;72.70
16521;DHT22;8373;48.110;11.522;2023-03-03T03:40:45;5.00;72.80
16521;DHT22;8373;48.110;11.522;2023-03-03T03:43:12;5.00;72.60
16521;DHT22;8373;48.110;11.522;2023-03-03T03:45:41;5.10;72.60
16521;DHT22;8373;48.110;11.522;2023-03-03T03:48:08;5.10;72.40
16521;DHT22;8373;48.110;11.522;2023-03-03T03:50:35;5.10;72.50
16521;DHT22;8373;48.110;11.522;2023-03-03T03:53:03;5.10;72.70
16521;DHT22;8373;48.110;11.522;2023-03-03T03:55:30;5.10;73.00
16521;DHT22;8373;48.110;11.522;2023-03-03T03:57:58;5.10;72.80
16521;DHT22;8373;48.110;11.522;2023-03-03T04:00:25;5.20;73.20
16521;DHT22;8373;48.110;11.522;2023-03-03T04:02:52;5.30;73.00
16521;DHT22;8373;48.110;11.522;2023-03-03T04:05:20;5.40;72.70
16521;DHT22;8373;48.110;11.522;2023-03-03T04:07:47;5.40;72.30
16521;DHT22;8373;48.110;11.522;2023-03-03T04:10:14;5.40;72.20
16521;DHT22;8373;48.110;11.522;2023-03-03T04:12:42;5.40;72.10
16521;DHT22;8373;48.110;11.522;2023-03-03T04:15:12;5.30;73.00
16521;DHT22;8373;48.110;11.522;2023-03-03T04:17:40;5.30;72.50
16521;DHT22;8373;48.110;11.522;2023-03-03T04:20:09;5.30;72.70
16521;DHT22;8373;48.110;11.522;2023-03-03T04:22:36;5.30;72.80
16521;DHT22;8373;48.110;11.522;2023-03-03T04:25:04;5.30;72.80
16521;DHT22;8373;48.110;11.522;2023-03-03T04:27:31;5.30;73.10
16521;DHT22;8373;48.110;11.522;2023-03-03T04:29:58;5.30;73.00
16521;DHT22;8373;48.110;11.522;2023-03-03T04:32:27;5.30;73.00
16521;DHT22;8373;48.110;11.522;2023-03-03T04:34:55;5.30;73.90
16521;DHT22;8373;48.110;11.522;2023-03-03T04:37:21;5.30;73.30
16521;DHT22;8373;48.110;11.522;2023-03-03T04:39:48;5.40;73.50
16521;DHT22;8373;48.110;11.522;2023-03-03T04:42:15;5.40;73.30
16521;DHT22;8373;48.110;11.522;2023-03-03T04:44:42;5.40;73.20
16521;DHT22;8373;48.110;11.522;2023-03-03T04:47:09;5.40;73.30
16521;DHT22;8373;48.110;11.522;2023-03-03T04:49:38;5.40;73.60
16521;DHT22;8373;48.110;11.522;2023-03-03T04:52:05;5.40;73.80
16521;DHT22;8373;48.110;11.522;2023-03-03T04:54:31;5.50;73.80
16521;DHT22;8373;48.110;11.522;2023-03-03T04:56:58;5.50;73.60
16521;DHT22;8373;48.110;11.522;2023-03-03T04:59:25;5.50;73.70
16521;DHT22;8373;48.110;11.522;2023-03-03T05:01:52;5.50;73.70
16521;DHT22;8373;48.110;11.522;2023-03-03T05:04:19;5.50;73.40
16521;DHT22;8373;48.110;11.522;2023-03-03T05:06:47;5.50;73.50
16521;DHT22;8373;48.110;11.522;2023-03-03T05:09:14;5.50;73.40
16521;DHT22;8373;48.110;11.522;2023-03-03T05:11:41;5.50;73.60
16521;DHT22;8373;48.110;11.522;2023-03-03T05:14:08;5.50;73.70
16521;DHT22;8373;48.110;11.522;2023-03-03T05:16:35;5.50;73.90
16521;DHT22;8373;48.110;11.522;2023-03-03T05:19:02;5.50;73.90
16521;DHT22;8373;48.110;11.522;2023-03-03T05:21:29;5.60;74.00
16521;DHT22;8373;48.110;11.522;2023-03-03T05:23:57;5.60;74.70
16521;DHT22;8373;48.110;11.522;2023-03-03T05:26:24;5.50;73.70
16521;DHT22;8373;48.110;11.522;2023-03-03T05:28:51;5.50;74.00
16521;DHT22;8373;48.110;11.522;2023-03-03T05:31:18;5.50;74.00
16521;DHT22;8373;48.110;11.522;2023-03-03T05:33:45;5.40;74.00
16521;DHT22;8373;48.110;11.522;2023-03-03T05:36:12;5.50;74.30
16521;DHT22;8373;48.110;11.522;2023-03-03T05:38:39;5.60;74.40
16521;DHT22;8373;48.110;11.522;2023-03-03T05:41:07;5.60;74.10
16521;DHT22;8373;48.110;11.522;2023-03-03T05:43:34;5.60;74.10
16521;DHT22;8373;48.110;11.522;2023-03-03T05:46:02;5.60;74.00
16521;DHT22;8373;48.110;11.522;2023-03-03T05:48:29;5.60;74.00
16521;DHT22;8373;48.110;11.522;2023-03-03T05:50:57;5.60;74.00
16521;DHT22;8373;48.110;11.522;2023-03-03T05:53:25;5.70;74.00
16521;DHT22;8373;48.110;11.522;2023-03-03T05:55:52;5.70;73.90
16521;DHT22;8373;48.110;11.522;2023-03-03T05:58:20;5.70;73.70
16521;DHT22;8373;48.110;11.522;2023-03-03T06:00:47;5.70;73.80
16521;DHT22;8373;48.110;11.522;2023-03-03T06:03:14;5.80;73.70
16521;DHT22;8373;48.110;11.522;2023-03-03T06:05:41;5.80;73.30
16521;DHT22;8373;48.110;11.522;2023-03-03T06:08:08;5.70;73.20
16521;DHT22;8373;48.110;11.522;2023-03-03T06:10:35;5.60;73.40
16521;DHT22;8373;48.110;11.522;2023-03-03T06:13:02;5.60;73.60
16521;DHT22;8373;48.110;11.522;2023-03-03T06:15:30;5.60;74.00
16521;DHT22;8373;48.110;11.522;2023-03-03T06:17:57;5.70;74.10
16521;DHT22;8373;48.110;11.522;2023-03-03T06:20:24;5.70;74.10
16521;DHT22;8373;48.110;11.522;2023-03-03T06:22:51;5.80;74.10
16521;DHT22;8373;48.110;11.522;2023-03-03T06:25:18;5.80;73.60
16521;DHT22;8373;48.110;11.522;2023-03-03T06:27:45;5.80;73.60
16521;DHT22;8373;48.110;11.522;2023-03-03T06:30:13;5.80;73.50
16521;DHT22;8373;48.110;11.522;2023-03-03T06:32:41;5.80;73.40
16521;DHT22;8373;48.110;11.522;2023-03-03T06:35:08;5.80;73.30
16521;DHT22;8373;48.110;11.522;2023-03-03T06:37:35;5.80;73.20
16521;DHT22;8373;48.110;11.522;2023-03-03T06:40:03;5.80;73.20
16521;DHT22;8373;48.110;11.522;2023-03-03T06:42:30;5.80;73.50
16521;DHT22;8373;48.110;11.522;2023-03-03T06:44:57;5.80;73.40
16521;DHT22;8373;48.110;11.522;2023-03-03T06:47:24;5.80;73.30
16521;DHT22;8373;48.110;11.522;2023-03-03T06:49:53;5.80;73.40
16521;DHT22;8373;48.110;11.522;2023-03-03T06:52:23;5.80;73.30
16521;DHT22;8373;48.110;11.522;2023-03-03T06:54:53;5.80;73.10
16521;DHT22;8373;48.110;11.522;2023-03-03T06:57:25;5.80;73.00
16521;DHT22;8373;48.110;11.522;2023-03-03T06:59:54;5.80;73.10
16521;DHT22;8373;48.110;11.522;2023-03-03T07:02:21;5.90;73.20
16521;DHT22;8373;48.110;11.522;2023-03-03T07:04:48;5.90;73.10
16521;DHT22;8373;48.110;11.522;2023-03-03T07:07:18;5.90;72.90
16521;DHT22;8373;48.110;11.522;2023-03-03T07:09:48;5.90;72.80
16521;DHT22;8373;48.110;11.522;2023-03-03T07:12:18;5.90;72.70
16521;DHT22;8373;48.110;11.522;2023-03-03T07:14:49;6.00;72.70
16521;DHT22;8373;48.110;11.522;2023-03-03T07:17:23;6.00;72.70
16521;DHT22;8373;48.110;11.522;2023-03-03T07:19:51;6.10;72.60
16521;DHT22;8373;48.110;11.522;2023-03-03T07:22:21;6.10;72.10
16521;DHT22;8373;48.110;11.522;2023-03-03T07:24:51;6.10;72.50
16521;DHT22;8373;48.110;11.522;2023-03-03T07:27:23;6.10;72.20
16521;DHT22;8373;48.110;11.522;2023-03-03T07:29:51;6.10;72.10
16521;DHT22;8373;48.110;11.522;2023-03-03T07:32:24;6.10;72.50
16521;DHT22;8373;48.110;11.522;2023-03-03T07:34:53;6.20;72.50
16521;DHT22;8373;48.110;11.522;2023-03-03T07:37:30;6.10;72.00
16521;DHT22;8373;48.110;11.522;2023-03-03T07:39:58;6.20;72.00
16521;DHT22;8373;48.110;11.522;2023-03-03T07:42:27;6.10;72.20
16521;DHT22;8373;48.110;11.522;2023-03-03T07:44:58;6.20;72.10
16521;DHT22;8373;48.110;11.522;2023-03-03T07:47:27;6.20;72.10
16521;DHT22;8373;48.110;11.522;2023-03-03T07:49:57;5.90;73.30
16521;DHT22;8373;48.110;11.522;2023-03-03T07:52:34;5.70;74.00
16521;DHT22;8373;48.110;11.522;2023-03-03T07:55:22;5.60;75.40
16521;DHT22;8373;48.110;11.522;2023-03-03T07:57:53;5.50;76.10
16521;DHT22;8373;48.110;11.522;2023-03-03T08:03:36;5.60;76.50
16521;DHT22;8373;48.110;11.522;2023-03-03T08:06:22;5.70;75.50
16521;DHT22;8373;48.110;11.522;2023-03-03T08:08:53;5.80;75.00
16521;DHT22;8373;48.110;11.522;2023-03-03T08:11:20;6.00;74.30
16521;DHT22;8373;48.110;11.522;2023-03-03T08:13:47;6.10;73.90
16521;DHT22;8373;48.110;11.522;2023-03-03T08:16:35;6.10;72.90
16521;DHT22;8373;48.110;11.522;2023-03-03T08:19:04;6.10;72.50
16521;DHT22;8373;48.110;11.522;2023-03-03T08:21:32;6.30;72.50
16521;DHT22;8373;48.110;11.522;2023-03-03T08:24:02;6.30;72.20
16521;DHT22;8373;48.110;11.522;2023-03-03T08:26:29;6.30;71.80
16521;DHT22;8373;48.110;11.522;2023-03-03T08:28:56;6.30;71.50
16521;DHT22;8373;48.110;11.522;2023-03-03T08:31:23;6.40;71.70
16521;DHT22;8373;48.110;11.522;2023-03-03T08:33:51;6.50;71.60
16521;DHT22;8373;48.110;11.522;2023-03-03T08:36:18;6.40;71.40
16521;DHT22;8373;48.110;11.522;2023-03-03T08:38:44;6.40;71.90
16521;DHT22;8373;48.110;11.522;2023-03-03T08:41:13;6.30;72.20
16521;DHT22;8373;48.110;11.522;2023-03-03T08:43:40;6.40;72.30
16521;DHT22;8373;48.110;11.522;2023-03-03T08:46:08;6.50;72.30
16521;DHT22;8373;48.110;11.522;2023-03-03T08:48:36;6.60;71.80
16521;DHT22;8373;48.110;11.522;2023-03-03T08:51:04;6.70;71.20
16521;DHT22;8373;48.110;11.522;2023-03-03T08:53:31;6.80;71.00
16521;DHT22;8373;48.110;11.522;2023-03-03T08:56:01;6.90;70.70
16521;DHT22;8373;48.110;11.522;2023-03-03T08:58:29;7.10;70.80
16521;DHT22;8373;48.110;11.522;2023-03-03T09:00:56;7.20;70.40
16521;DHT22;8373;48.110;11.522;2023-03-03T09:03:23;7.20;69.90
16521;DHT22;8373;48.110;11.522;2023-03-03T09:05:50;7.30;70.00
16521;DHT22;8373;48.110;11.522;2023-03-03T09:08:17;7.60;70.50
16521;DHT22;8373;48.110;11.522;2023-03-03T09:10:44;7.60;68.70
16521;DHT22;8373;48.110;11.522;2023-03-03T09:13:13;7.40;67.90
16521;DHT22;8373;48.110;11.522;2023-03-03T09:15:42;7.40;68.40
16521;DHT22;8373;48.110;11.522;2023-03-03T09:18:13;7.40;68.40
16521;DHT22;8373;48.110;11.522;2023-03-03T09:20:42;7.40;68.30
16521;DHT22;8373;48.110;11.522;2023-03-03T09:23:34;7.40;68.30
16521;DHT22;8373;48.110;11.522;2023-03-03T09:26:23;7.40;68.10
16521;DHT22;8373;48.110;11.522;2023-03-03T09:28:53;7.50;68.50
16521;DHT22;8373;48.110;11.522;2023-03-03T09:31:26;7.50;67.90
16521;DHT22;8373;48.110;11.522;2023-03-03T09:33:54;7.60;68.10
16521;DHT22;8373;48.110;11.522;2023-03-03T09:36:25;7.70;67.60
16521;DHT22;8373;48.110;11.522;2023-03-03T09:38:52;7.70;67.30
16521;DHT22;8373;48.110;11.522;2023-03-03T09:44:46;7.90;67.10
16521;DHT22;8373;48.110;11.522;2023-03-03T09:47:30;7.70;66.60
16521;DHT22;8373;48.110;11.522;2023-03-03T09:50:09;7.70;66.90
16521;DHT22;8373;48.110;11.522;2023-03-03T09:52:44;7.70;66.80
16521;DHT22;8373;48.110;11.522;2023-03-03T09:55:27;7.90;67.10
16521;DHT22;8373;48.110;11.522;2023-03-03T09:58:28;8.00;66.40
16521;DHT22;8373;48.110;11.522;2023-03-03T10:01:10;8.00;66.30
16521;DHT22;8373;48.110;11.522;2023-03-03T10:04:00;8.00;65.90
16521;DHT22;8373;48.110;11.522;2023-03-03T10:06:35;8.00;65.30
16521;DHT22;8373;48.110;11.522;2023-03-03T10:09:33;8.00;65.50
16521;DHT22;8373;48.110;11.522;2023-03-03T10:12:08;8.00;65.10
16521;DHT22;8373;48.110;11.522;2023-03-03T10:14:53;8.00;65.50
16521;DHT22;8373;48.110;11.522;2023-03-03T10:17:33;8.10;65.90
16521;DHT22;8373;48.110;11.522;2023-03-03T10:20:23;8.10;65.20
16521;DHT22;8373;48.110;11.522;2023-03-03T10:22:53;8.10;64.90
16521;DHT22;8373;48.110;11.522;2023-03-03T10:25:26;8.10;65.10
16521;DHT22;8373;48.110;11.522;2023-03-03T10:28:23;8.20;65.20
16521;DHT22;8373;48.110;11.522;2023-03-03T10:30:59;8.20;65.00
16521;DHT22;8373;48.110;11.522;2023-03-03T10:33:33;8.10;64.90
16521;DHT22;8373;48.110;11.522;2023-03-03T10:36:17;8.10;65.30
16521;DHT22;8373;48.110;11.522;2023-03-03T10:38:54;8.10;65.20
16521;DHT22;8373;48.110;11.522;2023-03-03T10:41:41;8.10;65.70
16521;DHT22;8373;48.110;11.522;2023-03-03T10:44:23;8.10;65.50
16521;DHT22;8373;48.110;11.522;2023-03-03T10:47:26;8.10;65.30
16521;DHT22;8373;48.110;11.522;2023-03-03T10:50:05;8.20;65.20
16521;DHT22;8373;48.110;11.522;2023-03-03T10:52:38;8.20;65.20
16521;DHT22;8373;48.110;11.522;2023-03-03T10:55:33;8.50;65.10
16521;DHT22;8373;48.110;11.522;2023-03-03T10:58:17;8.70;64.20
16521;DHT22;8373;48.110;11.522;2023-03-03T11:00:50;8.60;63.60
16521;DHT22;8373;48.110;11.522;2023-03-03T11:03:40;8.50;63.50
16521;DHT22;8373;48.110;11.522;2023-03-03T11:06:14;8.50;64.00
16521;DHT22;8373;48.110;11.522;2023-03-03T11:08:47;8.50;64.30
16521;DHT22;8373;48.110;11.522;2023-03-03T11:11:21;8.60;64.30
16521;DHT22;8373;48.110;11.522;2023-03-03T11:13:54;8.80;64.00
16521;DHT22;8373;48.110;11.522;2023-03-03T11:16:36;8.70;63.20
16521;DHT22;8373;48.110;11.522;2023-03-03T11:19:17;8.70;63.50
16521;DHT22;8373;48.110;11.522;2023-03-03T11:21:53;8.70;63.50
16521;DHT22;8373;48.110;11.522;2023-03-03T11:24:43;8.80;63.60
16521;DHT22;8373;48.110;11.522;2023-03-03T11:27:27;8.90;63.30
16521;DHT22;8373;48.110;11.522;2023-03-03T11:30:05;8.90;62.90
16521;DHT22;8373;48.110;11.522;2023-03-03T11:32:39;8.90;62.80
16521;DHT22;8373;48.110;11.522;2023-03-03T11:35:21;9.00;62.70
16521;DHT22;8373;48.110;11.522;2023-03-03T11:37:56;9.00;62.90
16521;DHT22;8373;48.110;11.522;2023-03-03T11:40:34;8.90;62.60
16521;DHT22;8373;48.110;11.522;2023-03-03T11:43:11;9.00;62.70
16521;DHT22;8373;48.110;11.522;2023-03-03T11:45:42;9.10;62.80
16521;DHT22;8373;48.110;11.522;2023-03-03T11:48:14;9.00;62.70
16521;DHT22;8373;48.110;11.522;2023-03-03T11:50:48;9.00;62.70
16521;DHT22;8373;48.110;11.522;2023-03-03T11:56:26;9.40;62.70
16521;DHT22;8373;48.110;11.522;2023-03-03T11:59:13;9.70;61.80
16521;DHT22;8373;48.110;11.522;2023-03-03T12:01:47;10.00;60.10
16521;DHT22;8373;48.110;11.522;2023-03-03T12:04:21;10.70;60.60
16521;DHT22;8373;48.110;11.522;2023-03-03T12:07:01;10.90;58.30
16521;DHT22;8373;48.110;11.522;2023-03-03T12:09:39;11.00;57.50
16521;DHT22;8373;48.110;11.522;2023-03-03T12:12:13;11.10;57.10
16521;DHT22;8373;48.110;11.522;2023-03-03T12:14:57;11.10;56.70
16521;DHT22;8373;48.110;11.522;2023-03-03T12:17:46;11.10;55.70
16521;DHT22;8373;48.110;11.522;2023-03-03T12:20:20;11.00;55.60
16521;DHT22;8373;48.110;11.522;2023-03-03T12:23:07;10.80;56.20
16521;DHT22;8373;48.110;11.522;2023-03-03T12:25:38;10.60;56.60
16521;DHT22;8373;48.110;11.522;2023-03-03T12:28:12;10.80;57.40
16521;DHT22;8373;48.110;11.522;2023-03-03T12:31:14;11.00;56.80
16521;DHT22;8373;48.110;11.522;2023-03-03T12:33:51;11.20;56.20
16521;DHT22;8373;48.110;11.522;2023-03-03T12:39:29;10.90;56.10
16521;DHT22;8373;48.110;11.522;2023-03-03T12:42:06;10.60;56.20
16521;DHT22;8373;48.110;11.522;2023-03-03T12:44:40;10.60;56.40
16521;DHT22;8373;48.110;11.522;2023-03-03T12:47:15;10.50;56.60
16521;DHT22;8373;48.110;11.522;2023-03-03T12:49:51;10.40;56.90
16521;DHT22;8373;48.110;11.522;2023-03-03T12:52:27;10.40;57.10
16521;DHT22;8373;48.110;11.522;2023-03-03T12:55:07;10.30;57.20
16521;DHT22;8373;48.110;11.522;2023-03-03T12:57:42;10.10;57.30
16521;DHT22;8373;48.110;11.522;2023-03-03T13:00:21;9.80;58.80
16521;DHT22;8373;48.110;11.522;2023-03-03T13:02:57;9.70;59.70
16521;DHT22;8373;48.110;11.522;2023-03-03T13:05:29;9.70;60.20
16521;DHT22;8373;48.110;11.522;2023-03-03T13:08:16;9.90;60.30
16521;DHT22;8373;48.110;11.522;2023-03-03T13:10:49;10.10;58.90
16521;DHT22;8373;48.110;11.522;2023-03-03T13:13:25;10.30;58.50
16521;DHT22;8373;48.110;11.522;2023-03-03T13:15:59;10.40;58.20
16521;DHT22;8373;48.110;11.522;2023-03-03T13:18:43;10.40;57.70
16521;DHT22;8373;48.110;11.522;2023-03-03T13:21:16;10.30;57.50
16521;DHT22;8373;48.110;11.522;2023-03-03T13:23:50;10.40;58.10
16521;DHT22;8373;48.110;11.522;2023-03-03T13:26:22;10.50;57.80
16521;DHT22;8373;48.110;11.522;2023-03-03T13:28:58;10.50;57.50
16521;DHT22;8373;48.110;11.522;2023-03-03T13:31:32;10.40;57.60
16521;DHT22;8373;48.110;11.522;2023-03-03T13:34:00;10.30;57.60
16521;DHT22;8373;48.110;11.522;2023-03-03T13:36:30;10.20;57.80
16521;DHT22;8373;48.110;11.522;2023-03-03T13:39:07;10.30;58.00
16521;DHT22;8373;48.110;11.522;2023-03-03T13:41:42;10.50;58.30
16521;DHT22;8373;48.110;11.522;2023-03-03T13:44:15;10.70;57.30
16521;DHT22;8373;48.110;11.522;2023-03-03T13:46:54;10.90;56.90
16521;DHT22;8373;48.110;11.522;2023-03-03T13:49:44;11.00;56.20
16521;DHT22;8373;48.110;11.522;2023-03-03T13:52:19;10.80;56.00
16521;DHT22;8373;48.110;11.522;2023-03-03T13:55:05;10.60;56.30
16521;DHT22;8373;48.110;11.522;2023-03-03T13:57:50;10.60;57.00
16521;DHT22;8373;48.110;11.522;2023-03-03T14:00:29;10.90;57.20
16521;DHT22;8373;48.110;11.522;2023-03-03T14:03:42;11.20;56.80
16521;DHT22;8373;48.110;11.522;2023-03-03T14:06:15;11.30;56.40
16521;DHT22;8373;48.110;11.522;2023-03-03T14:08:55;11.50;55.80
16521;DHT22;8373;48.110;11.522;2023-03-03T14:11:28;11.60;55.20
16521;DHT22;8373;48.110;11.522;2023-03-03T14:14:02;11.60;55.20
16521;DHT22;8373;48.110;11.522;2023-03-03T14:16:43;11.60;55.00
16521;DHT22;8373;48.110;11.522;2023-03-03T14:19:20;11.80;54.80
16521;DHT22;8373;48.110;11.522;2023-03-03T14:22:01;12.00;54.60
16521;DHT22;8373;48.110;11.522;2023-03-03T14:24:30;12.00;53.80
16521;DHT22;8373;48.110;11.522;2023-03-03T14:26:58;12.00;53.80
16521;DHT22;8373;48.110;11.522;2023-03-03T14:29:30;12.00;53.80
16521;DHT22;8373;48.110;11.522;2023-03-03T14:31:59;12.00;53.90
16521;DHT22;8373;48.110;11.522;2023-03-03T14:34:36;12.00;53.70
16521;DHT22;8373;48.110;11.522;2023-03-03T14:37:25;12.10;54.10
16521;DHT22;8373;48.110;11.522;2023-03-03T14:40:15;12.20;53.30
16521;DHT22;8373;48.110;11.522;2023-03-03T14:42:52;12.10;53.40
16521;DHT22;8373;48.110;11.522;2023-03-03T14:45:28;12.20;52.90
16521;DHT22;8373;48.110;11.522;2023-03-03T14:47:56;12.20;52.90
16521;DHT22;8373;48.110;11.522;2023-03-03T14:50:34;12.10;53.00
16521;DHT22;8373;48.110;11.522;2023-03-03T14:53:10;12.10;53.00
16521;DHT22;8373;48.110;11.522;2023-03-03T14:55:41;12.10;53.20
16521;DHT22;8373;48.110;11.522;2023-03-03T14:58:27;12.00;53.30
16521;DHT22;8373;48.110;11.522;2023-03-03T15:01:10;12.00;53.10
16521;DHT22;8373;48.110;11.522;2023-03-03T15:03:44;11.80;52.70
16521;DHT22;8373;48.110;11.522;2023-03-03T15:06:32;11.70;53.10
16521;DHT22;8373;48.110;11.522;2023-03-03T15:09:31;11.70;53.10
16521;DHT22;8373;48.110;11.522;2023-03-03T15:12:04;11.60;53.50
16521;DHT22;8373;48.110;11.522;2023-03-03T15:14:44;11.60;53.70
16521;DHT22;8373;48.110;11.522;2023-03-03T15:17:27;11.60;53.90
16521;DHT22;8373;48.110;11.522;2023-03-03T15:23:06;11.60;53.30
16521;DHT22;8373;48.110;11.522;2023-03-03T15:25:41;11.60;53.50
16521;DHT22;8373;48.110;11.522;2023-03-03T15:28:25;11.60;53.60
16521;DHT22;8373;48.110;11.522;2023-03-03T15:30:58;11.70;53.10
16521;DHT22;8373;48.110;11.522;2023-03-03T15:33:31;11.60;53.00
16521;DHT22;8373;48.110;11.522;2023-03-03T15:36:03;11.70;54.10
16521;DHT22;8373;48.110;11.522;2023-03-03T15:38:44;11.70;53.80
16521;DHT22;8373;48.110;11.522;2023-03-03T15:41:18;11.70;53.90
16521;DHT22;8373;48.110;11.522;2023-03-03T15:43:59;11.60;53.80
16521;DHT22;8373;48.110;11.522;2023-03-03T15:46:32;11.50;53.90
16521;DHT22;8373;48.110;11.522;2023-03-03T15:49:12;11.30;54.10
16521;DHT22;8373;48.110;11.522;2023-03-03T15:51:53;11.30;54.80
16521;DHT22;8373;48.110;11.522;2023-03-03T15:54:43;11.20;54.80
16521;DHT22;8373;48.110;11.522;2023-03-03T15:57:18;11.30;55.10
16521;DHT22;8373;48.110;11.522;2023-03-03T16:02:49;11.40;54.70
16521;DHT22;8373;48.110;11.522;2023-03-03T16:05:21;11.30;54.70
16521;DHT22;8373;48.110;11.522;2023-03-03T16:07:57;11.20;54.80
16521;DHT22;8373;48.110;11.522;2023-03-03T16:10:35;11.00;55.00
16521;DHT22;8373;48.110;11.522;2023-03-03T16:13:20;10.90;55.50
16521;DHT22;8373;48.110;11.522;2023-03-03T16:16:01;10.80;55.60
16521;DHT22;8373;48.110;11.522;2023-03-03T16:18:40;10.80;55.70
16521;DHT22;8373;48.110;11.522;2023-03-03T16:21:20;10.90;55.60
16521;DHT22;8373;48.110;11.522;2023-03-03T16:23:50;10.90;55.40
16521;DHT22;8373;48.110;11.522;2023-03-03T16:26:30;10.90;55.00
16521;DHT22;8373;48.110;11.522;2023-03-03T16:29:20;10.80;55.10
16521;DHT22;8373;48.110;11.522;2023-03-03T16:31:54;10.80;55.20
16521;DHT22;8373;48.110;11.522;2023-03-03T16:34:28;10.80;55.20
16521;DHT22;8373;48.110;11.522;2023-03-03T16:37:04;10.70;55.20
16521;DHT22;8373;48.110;11.522;2023-03-03T16:39:41;10.60;55.10
16521;DHT22;8373;48.110;11.522;2023-03-03T16:42:19;10.40;55.20
16521;DHT22;8373;48.110;11.522;2023-03-03T16:45:05;10.40;55.60
16521;DHT22;8373;48.110;11.522;2023-03-03T16:47:46;10.40;55.90
16521;DHT22;8373;48.110;11.522;2023-03-03T16:50:22;10.40;55.90
16521;DHT22;8373;48.110;11.522;2023-03-03T16:52:56;10.40;56.10
16521;DHT22;8373;48.110;11.522;2023-03-03T16:55:29;10.30;56.00
16521;DHT22;8373;48.110;11.522;2023-03-03T16:58:07;10.30;56.10
16521;DHT22;8373;48.110;11.522;2023-03-03T17:00:40;10.20;56.20
16521;DHT22;8373;48.110;11.522;2023-03-03T17:03:27;10.20;56.40
16521;DHT22;8373;48.110;11.522;2023-03-03T17:06:03;10.20;56.80
16521;DHT22;8373;48.110;11.522;2023-03-03T17:08:53;10.10;57.00
16521;DHT22;8373;48.110;11.522;2023-03-03T17:11:29;10.10;57.20
16521;DHT22;8373;48.110;11.522;2023-03-03T17:14:33;10.10;57.50
16521;DHT22;8373;48.110;11.522;2023-03-03T17:17:07;10.00;57.70
16521;DHT22;8373;48.110;11.522;2023-03-03T17:19:48;9.90;58.70
16521;DHT22;8373;48.110;11.522;2023-03-03T17:22:28;9.80;59.00